createdAt,value
2018-11-05T00:00:40.316Z,101399.95
2018-11-05T00:03:09.006Z,101395.03
2018-11-05T00:05:37.480Z,101384.13
2018-11-05T00:08:05.984Z,101393.98
2018-11-05T00:10:34.440Z,101387.19
2018-11-05T00:13:02.890Z,101385.34
2018-11-05T00:15:31.357Z,101385.66
2018-11-05T00:17:59.809Z,101386.50
2018-11-05T00:20:28.269Z,101391.77
2018-11-05T00:22:56.696Z,101392.80
2018-11-05T00:25:25.137Z,101379.50
2018-11-05T00:27:53.601Z,101384.79
2018-11-05T00:30:22.046Z,101382.39
2018-11-05T00:32:50.482Z,101385.12
2018-11-05T00:35:18.946Z,101385.28
2018-11-05T00:37:47.431Z,101380.67
2018-11-05T00:40:16.680Z,101371.14
2018-11-05T00:42:45.883Z,101381.36
2018-11-05T00:45:14.916Z,101370.80
2018-11-05T00:47:43.988Z,101371.96
2018-11-05T00:50:13.953Z,101376.37
2018-11-05T00:52:42.379Z,101376.05
2018-11-05T00:55:11.685Z,101377.58
2018-11-05T00:57:40.205Z,101372.13
2018-11-05T01:00:14.212Z,101368.04
2018-11-05T01:02:42.873Z,101373.13
2018-11-05T01:05:12.637Z,101369.56
2018-11-05T01:07:41.612Z,101359.52
2018-11-05T01:10:11.168Z,101354.39
2018-11-05T01:12:39.616Z,101345.34
2018-11-05T01:15:10.516Z,101342.09
2018-11-05T01:17:39.408Z,101339.86
2018-11-05T01:20:09.067Z,101340.18
2018-11-05T01:22:37.847Z,101343.10
2018-11-05T01:25:06.405Z,101345.83
2018-11-05T01:27:34.980Z,101334.24
2018-11-05T01:30:03.776Z,101333.17
2018-11-05T01:32:32.206Z,101337.26
2018-11-05T01:35:00.660Z,101326.69
2018-11-05T01:37:29.077Z,101332.81
2018-11-05T01:39:57.513Z,101326.33
2018-11-05T01:42:25.928Z,101320.31
2018-11-05T01:44:54.373Z,101316.91
2018-11-05T01:47:22.802Z,101310.09
2018-11-05T01:49:51.249Z,101314.50
2018-11-05T01:52:19.697Z,101308.73
2018-11-05T01:54:48.177Z,101300.23
2018-11-05T01:57:16.611Z,101301.40
2018-11-05T01:59:46.117Z,101298.67
2018-11-05T02:02:14.642Z,101300.84
2018-11-05T02:04:43.089Z,101294.87
2018-11-05T02:07:11.532Z,101292.30
2018-11-05T02:09:39.978Z,101287.69
2018-11-05T02:12:08.501Z,101292.45
2018-11-05T02:14:37.011Z,101295.34
2018-11-05T02:17:05.684Z,101289.41
2018-11-05T02:19:34.278Z,101300.63
2018-11-05T02:22:02.738Z,101291.22
2018-11-05T02:24:31.156Z,101284.08
2018-11-05T02:26:59.642Z,101285.77
2018-11-05T02:29:28.044Z,101290.53
2018-11-05T02:31:56.498Z,101282.20
2018-11-05T02:34:24.916Z,101275.38
2018-11-05T02:36:53.370Z,101278.46
2018-11-05T02:39:21.785Z,101273.02
2018-11-05T02:41:50.237Z,101269.24
2018-11-05T02:44:18.652Z,101263.95
2018-11-05T02:46:47.115Z,101274.85
2018-11-05T02:49:15.538Z,101264.63
2018-11-05T02:51:43.971Z,101265.80
2018-11-05T02:54:12.397Z,101262.06
2018-11-05T02:56:40.868Z,101265.78
2018-11-05T02:59:09.645Z,101258.45
2018-11-05T03:01:38.132Z,101256.25
2018-11-05T03:04:06.578Z,101256.25
2018-11-05T03:06:35.024Z,101253.52
2018-11-05T03:09:03.496Z,101254.16
2018-11-05T03:11:31.970Z,101252.48
2018-11-05T03:14:00.393Z,101257.92
2018-11-05T03:16:28.849Z,101247.86
2018-11-05T03:18:57.275Z,101246.45
2018-11-05T03:21:25.731Z,101242.69
2018-11-05T03:23:54.209Z,101248.66
2018-11-05T03:26:22.663Z,101250.02
2018-11-05T03:28:51.081Z,101257.52
2018-11-05T03:31:20.358Z,101253.75
2018-11-05T03:33:48.788Z,101255.43
2018-11-05T03:36:17.242Z,101257.47
2018-11-05T03:38:45.670Z,101252.86
2018-11-05T03:41:14.113Z,101245.84
2018-11-05T03:43:42.540Z,101252.34
2018-11-05T03:46:10.998Z,101250.80
2018-11-05T03:48:39.436Z,101249.92
2018-11-05T03:51:07.915Z,101241.75
2018-11-05T03:53:36.333Z,101240.91
2018-11-05T03:56:05.073Z,101239.38
2018-11-05T03:58:33.474Z,101232.03
2018-11-05T04:01:01.929Z,101225.53
2018-11-05T04:03:30.395Z,101232.55
2018-11-05T04:05:58.818Z,101228.59
2018-11-05T04:08:27.233Z,101228.09
2018-11-05T04:10:55.685Z,101225.86
2018-11-05T04:13:24.120Z,101220.61
2018-11-05T04:15:52.655Z,101213.27
2018-11-05T04:18:21.036Z,101210.17
2018-11-05T04:20:49.482Z,101215.94
2018-11-05T04:23:17.893Z,101222.59
2018-11-05T04:25:46.349Z,101224.48
2018-11-05T04:28:14.750Z,101212.05
2018-11-05T04:30:43.204Z,101217.83
2018-11-05T04:33:11.646Z,101211.85
2018-11-05T04:35:40.077Z,101219.02
2018-11-05T04:38:08.546Z,101216.30
2018-11-05T04:40:36.964Z,101217.98
2018-11-05T04:43:05.564Z,101215.05
2018-11-05T04:45:34.031Z,101219.86
2018-11-05T04:48:02.490Z,101218.30
2018-11-05T04:50:30.897Z,101213.31
2018-11-05T04:52:59.347Z,101202.61
2018-11-05T04:55:27.779Z,101206.70
2018-11-05T04:57:56.222Z,101200.89
2018-11-05T05:00:24.712Z,101200.05
2018-11-05T05:02:53.165Z,101199.73
2018-11-05T05:05:21.617Z,101204.02
2018-11-05T05:07:50.049Z,101205.50
2018-11-05T05:10:18.455Z,101197.67
2018-11-05T05:12:46.881Z,101193.38
2018-11-05T05:15:15.310Z,101190.13
2018-11-05T05:17:43.760Z,101177.34
2018-11-05T05:20:14.054Z,101178.33
2018-11-05T05:22:42.908Z,101174.95
2018-11-05T05:25:11.232Z,101179.89
2018-11-05T05:27:39.787Z,101182.79
2018-11-05T05:30:12.828Z,101180.59
2018-11-05T05:32:41.252Z,101185.72
2018-11-05T05:35:09.681Z,101186.36
2018-11-05T05:37:38.166Z,101181.78
2018-11-05T05:40:07.345Z,101172.87
2018-11-05T05:42:35.824Z,101177.25
2018-11-05T05:45:04.376Z,101168.26
2018-11-05T05:47:32.820Z,101173.86
2018-11-05T05:50:01.380Z,101182.24
2018-11-05T05:52:29.892Z,101180.83
2018-11-05T05:54:58.331Z,101174.70
2018-11-05T05:57:26.802Z,101174.00
2018-11-05T05:59:55.355Z,101177.25
2018-11-05T06:02:23.765Z,101170.61
2018-11-05T06:04:52.165Z,101170.29
2018-11-05T06:07:20.837Z,101173.34
2018-11-05T06:09:49.274Z,101177.11
2018-11-05T06:12:17.732Z,101180.88
2018-11-05T06:14:46.163Z,101187.50
2018-11-05T06:17:14.625Z,101184.45
2018-11-05T06:19:43.049Z,101187.17
2018-11-05T06:22:11.498Z,101187.29
2018-11-05T06:24:39.949Z,101180.47
2018-11-05T06:27:08.367Z,101182.19
2018-11-05T06:29:36.856Z,101187.64
2018-11-05T06:32:05.440Z,101190.38
2018-11-05T06:34:33.891Z,101189.01
2018-11-05T06:37:02.321Z,101184.56
2018-11-05T06:39:30.761Z,101190.02
2018-11-05T06:41:59.293Z,101190.89
2018-11-05T06:44:27.661Z,101203.66
2018-11-05T06:46:56.085Z,101207.26
2018-11-05T06:49:24.553Z,101201.92
2018-11-05T06:51:52.984Z,101204.27
2018-11-05T06:54:21.445Z,101203.06
2018-11-05T06:56:49.941Z,101195.05
2018-11-05T06:59:18.410Z,101201.55
2018-11-05T07:01:46.876Z,101190.43
2018-11-05T07:04:15.361Z,101190.26
2018-11-05T07:06:43.844Z,101187.53
2018-11-05T07:09:12.558Z,101192.98
2018-11-05T07:11:41.262Z,101190.41
2018-11-05T07:14:09.760Z,101191.77
2018-11-05T07:16:38.563Z,101193.77
2018-11-05T07:19:07.290Z,101191.88
2018-11-05T07:21:35.492Z,101200.73
2018-11-05T07:24:03.979Z,101213.53
2018-11-05T07:26:32.470Z,101209.23
2018-11-05T07:29:00.940Z,101201.52
2018-11-05T07:31:29.412Z,101205.92
2018-11-05T07:33:57.990Z,101209.85
2018-11-05T07:36:26.321Z,101207.13
2018-11-05T07:38:54.776Z,101206.08
2018-11-05T07:41:23.207Z,101211.33
2018-11-05T07:43:51.637Z,101215.95
2018-11-05T07:46:20.049Z,101215.10
2018-11-05T07:48:48.501Z,101220.39
2018-11-05T07:51:16.932Z,101207.76
2018-11-05T07:53:45.417Z,101207.76
2018-11-05T07:56:13.926Z,101215.25
2018-11-05T07:58:42.325Z,101210.95
2018-11-05T08:01:10.833Z,101211.62
2018-11-05T08:03:39.270Z,101213.51
2018-11-05T08:06:07.735Z,101212.25
2018-11-05T08:08:36.167Z,101208.13
2018-11-05T08:11:04.673Z,101210.13
2018-11-05T08:13:33.101Z,101214.05
2018-11-05T08:16:01.564Z,101215.91
2018-11-05T08:18:30.002Z,101209.75
2018-11-05T08:20:58.460Z,101203.91
2018-11-05T08:23:26.884Z,101194.68
2018-11-05T08:25:55.348Z,101190.20
2018-11-05T08:28:23.796Z,101185.90
2018-11-05T08:30:52.260Z,101194.44
2018-11-05T08:33:20.695Z,101196.96
2018-11-05T08:35:49.135Z,101191.44
2018-11-05T08:38:17.559Z,101191.44
2018-11-05T08:40:46.019Z,101186.12
2018-11-05T08:43:14.465Z,101177.09
2018-11-05T08:45:42.945Z,101170.19
2018-11-05T08:48:11.396Z,101165.72
2018-11-05T08:50:39.907Z,101165.15
2018-11-05T08:53:08.328Z,101153.17
2018-11-05T08:55:36.777Z,101148.38
2018-11-05T08:58:05.250Z,101142.32
2018-11-05T09:00:39.292Z,101144.52
2018-11-05T09:03:07.724Z,101136.26
2018-11-05T09:05:36.273Z,101138.47
2018-11-05T09:08:04.707Z,101137.45
2018-11-05T09:10:33.327Z,101139.66
2018-11-05T09:13:01.689Z,101142.84
2018-11-05T09:15:30.152Z,101141.92
2018-11-05T09:17:58.569Z,101137.83
2018-11-05T09:20:27.014Z,101133.72
2018-11-05T09:22:55.447Z,101138.14
2018-11-05T09:25:23.898Z,101144.76
2018-11-05T09:27:52.432Z,101143.73
2018-11-05T09:30:22.964Z,101141.98
2018-11-05T09:32:51.447Z,101134.63
2018-11-05T09:35:19.942Z,101133.36
2018-11-05T09:37:48.479Z,101130.23
2018-11-05T09:40:18.518Z,101129.53
2018-11-05T09:42:47.472Z,101130.16
2018-11-05T09:45:20.312Z,101138.18
2018-11-05T09:47:48.763Z,101136.67
2018-11-05T09:50:18.035Z,101140.33
2018-11-05T09:52:46.496Z,101146.18
2018-11-05T09:55:15.648Z,101141.63
2018-11-05T09:57:44.109Z,101141.38
2018-11-05T10:00:17.368Z,101142.67
2018-11-05T10:02:51.133Z,101143.64
2018-11-05T10:05:19.755Z,101142.72
2018-11-05T10:07:48.021Z,101144.85
2018-11-05T10:10:17.280Z,101142.12
2018-11-05T10:12:45.762Z,101140.67
2018-11-05T10:15:15.215Z,101138.91
2018-11-05T10:17:43.660Z,101142.30
2018-11-05T10:20:14.625Z,101144.74
2018-11-05T10:22:43.427Z,101141.83
2018-11-05T10:25:12.548Z,101128.92
2018-11-05T10:27:40.996Z,101137.64
2018-11-05T10:30:11.619Z,101129.36
2018-11-05T10:32:40.372Z,101131.75
2018-11-05T10:35:08.800Z,101124.81
2018-11-05T10:37:37.344Z,101114.63
2018-11-05T10:40:08.517Z,101108.77
2018-11-05T10:42:36.962Z,101106.27
2018-11-05T10:45:06.423Z,101110.48
2018-11-05T10:47:34.889Z,101112.38
2018-11-05T10:50:03.385Z,101104.05
2018-11-05T10:52:31.979Z,101101.63
2018-11-05T10:55:00.491Z,101100.70
2018-11-05T10:57:29.357Z,101093.06
2018-11-05T10:59:57.837Z,101092.97
2018-11-05T11:02:31.730Z,101083.53
2018-11-05T11:05:00.270Z,101081.45
2018-11-05T11:07:29.045Z,101075.36
2018-11-05T11:09:57.509Z,101075.45
2018-11-05T11:12:25.987Z,101078.40
2018-11-05T11:14:54.428Z,101073.55
2018-11-05T11:17:22.874Z,101070.38
2018-11-05T11:19:51.295Z,101077.71
2018-11-05T11:22:19.753Z,101072.52
2018-11-05T11:24:48.198Z,101061.67
2018-11-05T11:27:16.675Z,101061.89
2018-11-05T11:29:45.094Z,101056.95
2018-11-05T11:32:13.537Z,101062.33
2018-11-05T11:34:41.976Z,101059.31
2018-11-05T11:37:10.569Z,101053.13
2018-11-05T11:39:38.944Z,101049.68
2018-11-05T11:42:07.420Z,101052.72
2018-11-05T11:44:35.868Z,101051.36
2018-11-05T11:47:04.365Z,101035.88
2018-11-05T11:49:32.816Z,101034.30
2018-11-05T11:52:01.271Z,101044.18
2018-11-05T11:54:29.703Z,101046.08
2018-11-05T11:56:58.149Z,101050.89
2018-11-05T11:59:26.593Z,101042.81
2018-11-05T12:02:00.424Z,101025.34
2018-11-05T12:04:28.909Z,101026.72
2018-11-05T12:06:57.371Z,101023.36
2018-11-05T12:09:25.834Z,101023.76
2018-11-05T12:11:54.269Z,101021.55
2018-11-05T12:14:22.719Z,101014.91
2018-11-05T12:16:51.219Z,100999.98
2018-11-05T12:19:19.653Z,100999.98
2018-11-05T12:21:48.071Z,101006.70
2018-11-05T12:24:16.780Z,101005.33
2018-11-05T12:26:45.229Z,101007.63
2018-11-05T12:29:13.678Z,101002.16
2018-11-05T12:31:42.124Z,101001.02
2018-11-05T12:34:10.619Z,100999.77
2018-11-05T12:36:39.044Z,101002.41
2018-11-05T12:39:09.534Z,100994.52
2018-11-05T12:41:38.021Z,100990.23
2018-11-05T12:44:07.242Z,100982.20
2018-11-05T12:46:35.684Z,100982.61
2018-11-05T12:49:04.149Z,100972.33
2018-11-05T12:51:32.637Z,100964.55
2018-11-05T12:54:01.153Z,100964.02
2018-11-05T12:56:29.620Z,100962.00
2018-11-05T12:58:58.452Z,100963.80
2018-11-05T13:01:27.027Z,100958.02
2018-11-05T13:03:55.502Z,100961.50
2018-11-05T13:06:23.983Z,100963.80
2018-11-05T13:08:52.662Z,100970.14
2018-11-05T13:11:21.104Z,100958.77
2018-11-05T13:13:49.565Z,100966.33
2018-11-05T13:16:18.011Z,100967.91
2018-11-05T13:18:46.510Z,100986.41
2018-11-05T13:21:14.919Z,100987.34
2018-11-05T13:23:44.297Z,100991.02
2018-11-05T13:26:13.473Z,100995.11
2018-11-05T13:28:41.946Z,101000.27
2018-11-05T13:31:10.400Z,101001.33
2018-11-05T13:33:38.974Z,100989.62
2018-11-05T13:36:07.419Z,100993.72
2018-11-05T13:38:35.980Z,100970.70
2018-11-05T13:41:04.400Z,100963.33
2018-11-05T13:43:32.924Z,100971.01
2018-11-05T13:46:01.713Z,100974.27
2018-11-05T13:48:30.249Z,100968.09
2018-11-05T13:50:58.357Z,100967.96
2018-11-05T13:53:26.834Z,100968.58
2018-11-05T13:55:55.254Z,100962.19
2018-11-05T13:58:23.769Z,100975.85
2018-11-05T14:00:52.204Z,100968.89
2018-11-05T14:03:20.685Z,100973.71
2018-11-05T14:05:49.167Z,100973.09
2018-11-05T14:08:17.628Z,100966.56
2018-11-05T14:10:46.135Z,100970.45
2018-11-05T14:13:14.592Z,100977.28
2018-11-05T14:15:43.039Z,100988.22
2018-11-05T14:18:11.511Z,100993.50
2018-11-05T14:20:39.982Z,100999.50
2018-11-05T14:23:08.782Z,100992.66
2018-11-05T14:25:37.365Z,100982.04
2018-11-05T14:28:06.463Z,100974.36
2018-11-05T14:30:34.538Z,100968.89
2018-11-05T14:33:02.972Z,100948.82
2018-11-05T14:35:31.449Z,100943.88
2018-11-05T14:37:59.944Z,100945.44
2018-11-05T14:40:28.389Z,100953.64
2018-11-05T14:42:56.900Z,100951.13
2018-11-05T14:45:25.340Z,100943.45
2018-11-05T14:47:53.775Z,100941.25
2018-11-05T14:50:23.169Z,100935.56
2018-11-05T14:52:51.606Z,100937.23
2018-11-05T14:55:20.631Z,100946.92
2018-11-05T14:57:50.258Z,100945.13
2018-11-05T15:00:20.510Z,100942.39
2018-11-05T15:02:49.689Z,100929.78
2018-11-05T15:05:18.178Z,100929.97
2018-11-05T15:07:47.447Z,100936.72
2018-11-05T15:10:17.302Z,100936.06
2018-11-05T15:12:45.856Z,100926.50
2018-11-05T15:15:14.904Z,100923.88
2018-11-05T15:17:43.886Z,100929.66
2018-11-05T15:20:14.984Z,100927.77
2018-11-05T15:22:43.218Z,100914.82
2018-11-05T15:25:12.293Z,100910.14
2018-11-05T15:27:40.952Z,100908.74
2018-11-05T15:30:10.968Z,100917.84
2018-11-05T15:32:40.013Z,100925.37
2018-11-05T15:35:08.557Z,100922.78
2018-11-05T15:37:37.738Z,100918.98
2018-11-05T15:40:06.864Z,100914.69
2018-11-05T15:42:35.369Z,100911.73
2018-11-05T15:45:03.896Z,100911.90
2018-11-05T15:47:32.374Z,100909.38
2018-11-05T15:50:00.819Z,100910.25
2018-11-05T15:52:29.580Z,100910.23
2018-11-05T15:54:57.730Z,100918.75
2018-11-05T15:57:26.176Z,100933.96
2018-11-05T15:59:54.633Z,100922.25
2018-11-05T16:02:23.073Z,100910.58
2018-11-05T16:04:51.541Z,100911.31
2018-11-05T16:07:19.975Z,100901.89
2018-11-05T16:09:48.446Z,100904.63
2018-11-05T16:12:16.877Z,100901.13
2018-11-05T16:14:45.393Z,100910.14
2018-11-05T16:17:13.798Z,100909.30
2018-11-05T16:19:42.258Z,100908.14
2018-11-05T16:22:10.700Z,100904.30
2018-11-05T16:24:39.199Z,100888.91
2018-11-05T16:27:07.640Z,100888.90
2018-11-05T16:29:36.063Z,100894.78
2018-11-05T16:32:04.538Z,100903.08
2018-11-05T16:34:32.995Z,100903.75
2018-11-05T16:37:01.445Z,100902.91
2018-11-05T16:39:29.955Z,100900.67
2018-11-05T16:41:58.378Z,100902.76
2018-11-05T16:44:26.833Z,100907.28
2018-11-05T16:46:55.277Z,100904.84
2018-11-05T16:49:23.695Z,100904.40
2018-11-05T16:51:52.133Z,100904.97
2018-11-05T16:54:20.591Z,100906.50
2018-11-05T16:56:49.052Z,100905.29
2018-11-05T16:59:17.478Z,100898.17
2018-11-05T17:01:46.343Z,100898.74
2018-11-05T17:04:14.390Z,100884.20
2018-11-05T17:06:42.854Z,100881.55
2018-11-05T17:09:11.321Z,100880.45
2018-11-05T17:11:39.774Z,100887.47
2018-11-05T17:14:08.361Z,100876.78
2018-11-05T17:16:36.841Z,100878.34
2018-11-05T17:19:05.335Z,100885.73
2018-11-05T17:21:33.798Z,100886.45
2018-11-05T17:24:02.218Z,100898.17
2018-11-05T17:26:31.170Z,100897.66
2018-11-05T17:28:59.584Z,100882.02
2018-11-05T17:31:28.058Z,100883.58
2018-11-05T17:33:56.507Z,100887.98
2018-11-05T17:36:24.967Z,100887.51
2018-11-05T17:38:53.401Z,100887.28
2018-11-05T17:41:21.827Z,100882.91
2018-11-05T17:43:50.865Z,100876.11
2018-11-05T17:46:19.395Z,100880.39
2018-11-05T17:48:47.858Z,100861.97
2018-11-05T17:51:16.279Z,100867.83
2018-11-05T17:53:44.742Z,100861.96
2018-11-05T17:56:13.206Z,100855.09
2018-11-05T17:58:41.661Z,100861.69
2018-11-05T18:01:10.102Z,100861.64
2018-11-05T18:03:38.579Z,100865.35
2018-11-05T18:06:07.084Z,100864.52
2018-11-05T18:08:35.601Z,100867.23
2018-11-05T18:11:04.036Z,100860.39
2018-11-05T18:13:32.500Z,100856.11
2018-11-05T18:16:00.922Z,100841.41
2018-11-05T18:18:29.361Z,100851.70
2018-11-05T18:20:57.785Z,100862.77
2018-11-05T18:23:26.225Z,100849.65
2018-11-05T18:25:54.649Z,100847.58
2018-11-05T18:28:23.119Z,100853.50
2018-11-05T18:30:51.528Z,100854.97
2018-11-05T18:33:19.960Z,100843.35
2018-11-05T18:35:48.431Z,100847.23
2018-11-05T18:38:16.944Z,100847.23
2018-11-05T18:40:45.320Z,100847.55
2018-11-05T18:43:13.756Z,100837.05
2018-11-05T18:45:42.190Z,100829.19
2018-11-05T18:48:10.688Z,100830.12
2018-11-05T18:50:39.159Z,100826.09
2018-11-05T18:53:07.592Z,100820.44
2018-11-05T18:55:36.034Z,100821.21
2018-11-05T18:58:04.448Z,100819.09
2018-11-05T19:00:32.915Z,100813.51
2018-11-05T19:03:01.348Z,100807.02
2018-11-05T19:05:30.596Z,100831.80
2018-11-05T19:07:59.026Z,100823.77
2018-11-05T19:10:27.487Z,100806.01
2018-11-05T19:12:55.947Z,100820.76
2018-11-05T19:15:24.379Z,100817.27
2018-11-05T19:17:52.884Z,100807.75
2018-11-05T19:20:21.340Z,100807.70
2018-11-05T19:22:49.843Z,100797.19
2018-11-05T19:25:18.493Z,100790.28
2018-11-05T19:27:46.914Z,100794.47
2018-11-05T19:30:18.793Z,100793.89
2018-11-05T19:32:47.272Z,100798.13
2018-11-05T19:35:15.717Z,100784.91
2018-11-05T19:37:44.176Z,100784.79
2018-11-05T19:40:13.700Z,100780.14
2018-11-05T19:42:43.122Z,100783.18
2018-11-05T19:45:13.669Z,100789.39
2018-11-05T19:47:42.147Z,100786.37
2018-11-05T19:50:13.098Z,100783.00
2018-11-05T19:52:42.841Z,100775.36
2018-11-05T19:55:12.904Z,100778.15
2018-11-05T19:57:42.288Z,100773.00
2018-11-05T20:00:24.055Z,100775.87
2018-11-05T20:02:52.791Z,100783.51
2018-11-05T20:05:21.286Z,100767.19
2018-11-05T20:07:50.550Z,100779.78
2018-11-05T20:10:19.008Z,100773.06
2018-11-05T20:12:47.593Z,100773.84
2018-11-05T20:15:16.361Z,100773.98
2018-11-05T20:17:45.684Z,100765.09
2018-11-05T20:20:15.560Z,100765.47
2018-11-05T20:22:44.200Z,100766.14
2018-11-05T20:25:12.974Z,100771.52
2018-11-05T20:27:41.900Z,100760.55
2018-11-05T20:30:13.969Z,100759.57
2018-11-05T20:32:42.718Z,100754.39
2018-11-05T20:35:11.162Z,100756.47
2018-11-05T20:37:39.899Z,100758.81
2018-11-05T20:40:10.658Z,100755.33
2018-11-05T20:42:38.901Z,100751.89
2018-11-05T20:45:07.353Z,100742.95
2018-11-05T20:47:35.852Z,100736.41
2018-11-05T20:50:04.546Z,100725.55
2018-11-05T20:52:33.283Z,100717.66
2018-11-05T20:55:01.703Z,100728.66
2018-11-05T20:57:30.175Z,100733.41
2018-11-05T20:59:58.609Z,100727.75
2018-11-05T21:02:27.059Z,100721.60
2018-11-05T21:04:55.460Z,100719.34
2018-11-05T21:07:23.899Z,100719.27
2018-11-05T21:09:52.330Z,100729.84
2018-11-05T21:12:20.784Z,100724.45
2018-11-05T21:14:49.309Z,100720.75
2018-11-05T21:17:17.761Z,100714.39
2018-11-05T21:19:46.194Z,100714.78
2018-11-05T21:22:14.793Z,100716.74
2018-11-05T21:24:43.102Z,100710.56
2018-11-05T21:27:11.619Z,100707.14
2018-11-05T21:29:39.997Z,100708.60
2018-11-05T21:32:08.476Z,100703.16
2018-11-05T21:34:36.920Z,100704.73
2018-11-05T21:37:05.399Z,100709.86
2018-11-05T21:39:33.839Z,100714.64
2018-11-05T21:42:02.297Z,100711.92
2018-11-05T21:44:30.716Z,100706.23
2018-11-05T21:46:59.157Z,100708.13
2018-11-05T21:49:27.583Z,100704.73
2018-11-05T21:51:56.340Z,100697.41
2018-11-05T21:54:24.882Z,100699.67
2018-11-05T21:56:53.246Z,100691.51
2018-11-05T21:59:21.686Z,100692.42
2018-11-05T22:01:50.128Z,100696.33
2018-11-05T22:04:18.574Z,100694.05
2018-11-05T22:06:47.008Z,100694.89
2018-11-05T22:09:15.457Z,100694.69
2018-11-05T22:11:43.886Z,100702.15
2018-11-05T22:14:12.330Z,100703.30
2018-11-05T22:16:40.762Z,100696.88
2018-11-05T22:19:09.232Z,100693.22
2018-11-05T22:21:37.648Z,100696.95
2018-11-05T22:24:06.563Z,100697.55
2018-11-05T22:26:34.998Z,100700.73
2018-11-05T22:29:03.461Z,100699.89
2018-11-05T22:31:31.894Z,100703.31
2018-11-05T22:34:00.360Z,100696.50
2018-11-05T22:36:28.781Z,100694.83
2018-11-05T22:38:57.259Z,100693.22
2018-11-05T22:41:25.677Z,100695.49
2018-11-05T22:43:54.093Z,100691.52
2018-11-05T22:46:22.545Z,100690.50
2018-11-05T22:48:50.973Z,100697.17
2018-11-05T22:51:19.427Z,100691.41
2018-11-05T22:53:47.834Z,100698.91
2018-11-05T22:56:16.268Z,100700.28
2018-11-05T22:58:44.718Z,100703.66
2018-11-05T23:01:18.465Z,100695.67
2018-11-05T23:03:46.884Z,100688.62
2018-11-05T23:06:15.341Z,100685.73
2018-11-05T23:08:43.774Z,100692.22
2018-11-05T23:11:12.236Z,100692.73
2018-11-05T23:13:40.652Z,100690.92
2018-11-05T23:16:09.102Z,100684.19
2018-11-05T23:18:37.551Z,100687.07
2018-11-05T23:21:06.349Z,100690.38
2018-11-05T23:23:34.758Z,100686.11
2018-11-05T23:26:03.192Z,100686.20
2018-11-05T23:28:31.632Z,100681.73
2018-11-05T23:31:00.092Z,100682.38
2018-11-05T23:33:28.606Z,100675.70
2018-11-05T23:35:56.977Z,100672.89
2018-11-05T23:38:25.394Z,100675.78
2018-11-05T23:40:53.922Z,100677.06
2018-11-05T23:43:22.296Z,100670.41
2018-11-05T23:45:50.736Z,100668.17
2018-11-05T23:48:19.171Z,100669.64
2018-11-05T23:50:47.604Z,100673.58
2018-11-05T23:53:16.038Z,100672.84
2018-11-05T23:55:44.480Z,100673.27
2018-11-05T23:58:12.901Z,100666.05
